H208 — WDJ6389 — position and weather

sailwx.info

Track history (hours):
 
Tides and Currents Weather Stations Pressure Air Temp Water Temp Dewpoint Dewpoint Depression Visibility Wind Speed Wind Dir Waves Ship Positions

H208

Owner: HNY Ferry Fleet LLC, New York, NY. More information available from US FCC via Universal Licensing System and Coast Guard Vessel Documentation Center.

Last reported at 2018-Jul-22 02:25 UTC. Time now 2018-Jul-22 02:56 UTC.
Position N 40°42' W 073°58'.

Length 26 m; draft 2 m.

Type: Passenger vessel. MMSI: 367797260.

Date/timePositionNaut miles runAvg speedWind from/ knotsBaromVisibWave heightAir tempDewpointWater temp
2018-Jul-22 02:25N 40°42' W 073°58'1 2.7
2018-Jul-22 02:01N 40°42' W 073°60'4 8.0
2018-Jul-22 01:30N 40°39' W 074°02'3 6.5
2018-Jul-22 01:01N 40°42' W 074°00'0 0.0
2018-Jul-22 00:31N 40°42' W 074°00'3 5.9
2018-Jul-22 00:00N 40°39' W 074°02'4 7.1
2018-Jul-21 23:30N 40°42' W 074°00'0 0.1
2018-Jul-21 23:01N 40°42' W 074°00'3 5.1
2018-Jul-21 22:31N 40°44' W 073°58'0 0.1
2018-Jul-21 22:00N 40°44' W 073°58'2 4.4
2018-Jul-21 21:30N 40°42' W 073°60'0 0.0
2018-Jul-21 21:00N 40°42' W 073°60'3 5.5
2018-Jul-21 20:31N 40°45' W 073°58'1 1.3
2018-Jul-21 20:00N 40°44' W 073°58'2 4.4
2018-Jul-21 19:30N 40°42' W 073°60'0 0.0
2018-Jul-21 19:01N 40°42' W 073°60'3 5.5
2018-Jul-21 18:30N 40°45' W 073°58'1 1.3
2018-Jul-21 18:00N 40°44' W 073°58'2 4.4
2018-Jul-21 17:31N 40°42' W 073°60'0 0.1
2018-Jul-21 17:00N 40°42' W 073°60'2 4.3
2018-Jul-21 16:30N 40°44' W 073°58'0 0.3
2018-Jul-21 16:01N 40°44' W 073°58'2 4.6
2018-Jul-21 15:30N 40°42' W 073°60'0 0.0
2018-Jul-21 15:00N 40°42' W 073°60'2 4.4
2018-Jul-21 14:30N 40°44' W 073°58'2 2.2
2018-Jul-21 13:30N 40°42' W 073°60'0 0.9
2018-Jul-21 13:00N 40°42' W 074°00'2 3.3
2018-Jul-21 12:31N 40°43' W 073°58'2 4.3
2018-Jul-21 12:00N 40°45' W 073°58'3 5.1
2018-Jul-21 11:30N 40°42' W 073°58'0 0.0
2018-Jul-21 02:45N 40°42' W 073°58'1 5.6
2018-Jul-21 02:30N 40°42' W 074°00'4 7.5
2018-Jul-21 02:00N 40°45' W 073°57'0 0.9
2018-Jul-21 01:30N 40°45' W 073°57'3 6.9
2018-Jul-21 01:00N 40°42' W 074°00'4 7.5
2018-Jul-21 00:30N 40°45' W 073°57'0 0.6
2018-Jul-21 00:00N 40°45' W 073°57'3 6.8
2018-Jul-20 23:30N 40°42' W 074°00'3 5.9
2018-Jul-20 23:00N 40°45' W 073°58'1 1.7
2018-Jul-20 22:21N 40°45' W 073°57'2 6.3
2018-Jul-20 22:00N 40°43' W 073°58'1 2.6
2018-Jul-20 21:30N 40°45' W 073°58'1 2.1
2018-Jul-20 20:53N 40°46' W 073°57'2 6.5
2018-Jul-20 20:31N 40°43' W 073°58'1 2.8
2018-Jul-20 20:00N 40°45' W 073°58'2 3.9
2018-Jul-20 19:30N 40°46' W 073°56'3 7.1
2018-Jul-20 19:01N 40°43' W 073°58'2 3.2
2018-Jul-20 18:28N 40°45' W 073°58'2 4.7
2018-Jul-20 18:00N 40°46' W 073°56'3 6.0
2018-Jul-20 17:31N 40°44' W 073°58'1 1.6
2018-Jul-20 16:58N 40°45' W 073°58'2 5.0
2018-Jul-20 16:30N 40°46' W 073°56'3 6.1
2018-Jul-20 16:00N 40°44' W 073°58'1 1.9
2018-Jul-20 15:28N 40°45' W 073°58'2 4.9
2018-Jul-20 15:00N 40°46' W 073°56'3 6.6
2018-Jul-20 14:30N 40°43' W 073°58'0 0.6
2018-Jul-20 14:01N 40°44' W 073°58'3 5.9
2018-Jul-20 13:29N 40°46' W 073°56'2 5.1
2018-Jul-20 13:00N 40°45' W 073°58'1 1.6
2018-Jul-20 12:31N 40°44' W 073°58'3 5.8
2018-Jul-20 12:00N 40°46' W 073°56'2 4.8
2018-Jul-20 11:31N 40°45' W 073°58'2 4.0
2018-Jul-20 11:01N 40°43' W 073°59'4 7.9
2018-Jul-20 10:29N 40°46' W 073°56'5 9.4
2018-Jul-20 10:00N 40°42' W 073°58'0 0.0
2018-Jul-20 09:30N 40°42' W 073°58'0 0.0
2018-Jul-20 02:56N 40°42' W 073°58'0 0.7
2018-Jul-20 02:31N 40°42' W 073°59'3 5.9
2018-Jul-20 02:00N 40°45' W 073°57'0 0.3
2018-Jul-20 01:30N 40°45' W 073°57'4 7.9
2018-Jul-20 01:01N 40°42' W 074°00'4 7.2
2018-Jul-20 00:30N 40°45' W 073°57'0 0.8
2018-Jul-20 00:00N 40°45' W 073°57'4 8.0
2018-Jul-19 23:31N 40°42' W 074°00'3 5.7
2018-Jul-19 23:00N 40°45' W 073°58'2 4.4
2018-Jul-19 22:29N 40°46' W 073°56'3 5.7
2018-Jul-19 22:00N 40°44' W 073°58'1 1.3
2018-Jul-19 21:30N 40°45' W 073°58'2 4.4
2018-Jul-19 21:00N 40°46' W 073°56'3 6.8
2018-Jul-19 20:31N 40°43' W 073°58'1 2.7
2018-Jul-19 20:00N 40°45' W 073°58'2 3.9
2018-Jul-19 19:28N 40°46' W 073°56'3 7.5
2018-Jul-19 19:00N 40°43' W 073°58'2 3.3
2018-Jul-19 18:30N 40°45' W 073°58'2 4.3
2018-Jul-19 17:58N 40°46' W 073°56'3 6.2
2018-Jul-19 17:30N 40°44' W 073°58'1 1.5
2018-Jul-19 16:58N 40°45' W 073°58'2 4.9
2018-Jul-19 16:30N 40°46' W 073°56'3 6.3
2018-Jul-19 16:01N 40°44' W 073°58'1 2.0
2018-Jul-19 15:28N 40°45' W 073°58'2 5.0
2018-Jul-19 15:00N 40°46' W 073°56'3 6.4
2018-Jul-19 14:30N 40°44' W 073°58'3 3.0
2018-Jul-19 13:28N 40°46' W 073°56'2 5.2
2018-Jul-19 13:01N 40°45' W 073°58'1 1.5
2018-Jul-19 12:30N 40°44' W 073°58'3 5.7
2018-Jul-19 12:00N 40°46' W 073°56'3 5.6
2018-Jul-19 11:30N 40°44' W 073°58'1 2.8
2018-Jul-19 11:01N 40°43' W 073°59'4 8.1
2018-Jul-19 10:30N 40°46' W 073°56'4 9.1
2018-Jul-19 10:01N 40°42' W 073°58'0 0.1
2018-Jul-19 09:30N 40°42' W 073°58'0 0.0
2018-Jul-19 09:00N 40°42' W 073°58'0 0.0
2018-Jul-19 03:09N 40°42' W 073°58'0 0.1
2018-Jul-19 02:59N 40°42' W 073°58'2 3.2
2018-Jul-19 02:31N 40°42' W 074°00'3 6.0
2018-Jul-19 02:00N 40°39' W 074°02'3 6.1
2018-Jul-19 01:31N 40°42' W 074°00'0 0.0
2018-Jul-19 01:00N 40°42' W 074°00'3 5.4
2018-Jul-19 00:30N 40°39' W 074°02'2 3.7
2018-Jul-19 00:00N 40°41' W 074°01'1 2.8
2018-Jul-18 23:31N 40°42' W 074°00'1 1.7
2018-Jul-18 23:01N 40°41' W 074°00'3 6.4
2018-Jul-18 22:31N 40°38' W 074°02'4 7.1
2018-Jul-18 22:01N 40°42' W 074°00'0 0.4
2018-Jul-18 21:30N 40°42' W 074°00'4 7.1
2018-Jul-18 21:00N 40°38' W 074°02'3 6.6
2018-Jul-18 20:31N 40°41' W 074°00'2 3.4
2018-Jul-18 20:00N 40°42' W 073°58'0 0.3
2018-Jul-18 19:30N 40°42' W 073°58'0 0.1
2018-Jul-18 19:00N 40°42' W 073°58'0 0.1
2018-Jul-18 18:31N 40°42' W 073°58'0 0.0
2018-Jul-18 18:00N 40°42' W 073°58'1 2.9
2018-Jul-18 17:31N 40°42' W 074°00'4 7.1
2018-Jul-18 17:00N 40°38' W 074°02'4 7.1
2018-Jul-18 16:31N 40°42' W 074°00'1 1.4
2018-Jul-18 16:01N 40°42' W 073°60'4 7.3
2018-Jul-18 15:30N 40°39' W 074°02'4 8.1
2018-Jul-18 15:00N 40°42' W 073°58'0 0.0
2018-Jul-18 14:30N 40°42' W 073°58'1 0.7
2018-Jul-18 13:31N 40°42' W 073°59'1 2.4
2018-Jul-18 13:00N 40°43' W 073°58'1 2.5
2018-Jul-18 12:30N 40°45' W 073°58'3 5.1
2018-Jul-18 12:01N 40°42' W 073°59'1 1.0
2018-Jul-18 11:30N 40°42' W 073°59'1 0.6
2018-Jul-18 10:30N 40°42' W 073°58'0 0.0
2018-Jul-18 10:00N 40°42' W 073°58'0 0.0
2018-Jul-18 02:39N 40°42' W 073°58'0 1.0
2018-Jul-18 02:30N 40°42' W 073°58'1 2.6
2018-Jul-18 02:00N 40°43' W 073°58'2 4.4
2018-Jul-18 01:30N 40°42' W 074°00'0 0.2
2018-Jul-18 01:01N 40°42' W 074°00'2 5.0
2018-Jul-18 00:31N 40°44' W 073°58'1 1.0
2018-Jul-18 00:00N 40°43' W 073°58'2 4.3
2018-Jul-17 23:30N 40°42' W 074°00'2 4.4
2018-Jul-17 23:00N 40°43' W 073°58'1 2.4
2018-Jul-17 22:30N 40°44' W 073°58'3 5.3
2018-Jul-17 22:00N 40°42' W 073°60'1 1.1
2018-Jul-17 21:30N 40°42' W 073°59'2 4.7
2018-Jul-17 21:01N 40°45' W 073°58'2 4.2
2018-Jul-17 20:30N 40°43' W 073°58'1 2.9
2018-Jul-17 20:00N 40°42' W 074°00'2 4.4
2018-Jul-17 19:31N 40°43' W 073°58'1 2.5
2018-Jul-17 19:01N 40°45' W 073°58'3 5.6
2018-Jul-17 18:30N 40°42' W 073°60'1 1.4
2018-Jul-17 18:01N 40°42' W 073°59'1 2.2
2018-Jul-17 17:30N 40°43' W 073°58'1 2.5
2018-Jul-17 17:01N 40°45' W 073°58'3 5.2
2018-Jul-17 16:30N 40°42' W 073°60'1 1.2
2018-Jul-17 16:00N 40°42' W 074°00'2 4.2
2018-Jul-17 15:30N 40°43' W 073°58'1 2.1
2018-Jul-17 14:57N 40°44' W 073°58'3 5.7
2018-Jul-17 14:30N 40°42' W 073°60'0 0.2
2018-Jul-17 14:01N 40°42' W 073°60'2 4.4
2018-Jul-17 13:30N 40°44' W 073°58'1 1.3
2018-Jul-17 13:00N 40°43' W 073°58'2 4.2
2018-Jul-17 12:30N 40°42' W 074°00'2 4.3
2018-Jul-17 12:00N 40°43' W 073°58'1 2.5
2018-Jul-17 11:31N 40°45' W 073°58'3 5.3
2018-Jul-17 11:01N 40°42' W 073°60'1 2.1
2018-Jul-17 10:31N 40°42' W 073°58'0 0.0
2018-Jul-17 10:00N 40°42' W 073°58'0 0.0
2018-Jul-17 02:17N 40°42' W 073°58'0 0.3
2018-Jul-17 02:01N 40°42' W 073°58'5 9.2
2018-Jul-17 01:30N 40°39' W 074°02'816.5
2018-Jul-17 01:00N 40°35' W 073°53'4 7.1
2018-Jul-17 00:30N 40°34' W 073°57'6 6.1
2018-Jul-16 23:30N 40°39' W 074°02'713.1
2018-Jul-16 22:59N 40°34' W 073°56'4 7.4
2018-Jul-16 22:30N 40°35' W 073°51'917.8
2018-Jul-16 22:00N 40°37' W 074°03'611.2
2018-Jul-16 21:31N 40°42' W 074°00'612.6
2018-Jul-16 21:00N 40°36' W 074°02'914.9
2018-Jul-16 20:23N 40°35' W 073°50'718.8
2018-Jul-16 20:00N 40°34' W 073°59'815.6
2018-Jul-16 19:30N 40°42' W 074°01'510.0
2018-Jul-16 19:00N 40°37' W 074°02'810.4
2018-Jul-16 18:16N 40°34' W 073°53'718.6
2018-Jul-16 17:55N 40°35' W 074°01'615.9
2018-Jul-16 17:30N 40°41' W 074°01'5 9.4
2018-Jul-16 17:00N 40°37' W 074°03'8 9.9
2018-Jul-16 16:14N 40°34' W 073°53'520.6
2018-Jul-16 16:00N 40°34' W 073°59'714.3
2018-Jul-16 15:31N 40°41' W 074°01'2 4.2
2018-Jul-16 15:01N 40°39' W 074°02'816.0
2018-Jul-16 14:29N 40°35' W 073°52'4 8.8
2018-Jul-16 13:59N 40°34' W 073°58'613.7
2018-Jul-16 13:31N 40°40' W 074°01'1 2.2
2018-Jul-16 13:00N 40°39' W 074°02'713.7
2018-Jul-16 12:30N 40°34' W 073°54'1 1.6
2018-Jul-16 12:00N 40°34' W 073°55'714.4
2018-Jul-16 11:30N 40°39' W 074°02'0 0.6
2018-Jul-16 11:00N 40°39' W 074°02'713.7
2018-Jul-16 10:30N 40°34' W 073°55'1 1.4
2018-Jul-16 10:00N 40°34' W 073°54'815.2
2018-Jul-16 09:30N 40°39' W 074°02'5 9.2
2018-Jul-16 09:00N 40°42' W 073°58'0 0.0
2018-Jul-16 01:25N 40°42' W 073°58'0 0.4
2018-Jul-16 01:00N 40°42' W 073°58'5 9.6
2018-Jul-16 00:31N 40°39' W 074°03'9 8.9
2018-Jul-15 23:29N 40°34' W 073°53'817.9
2018-Jul-15 23:01N 40°38' W 074°03'4 8.4
2018-Jul-15 22:30N 40°42' W 074°00'4 8.9
2018-Jul-15 22:01N 40°38' W 074°03'1 0.9
2018-Jul-15 20:34N 40°37' W 074°03'121.9
2018-Jul-15 20:30N 40°38' W 074°03'4 5.4
2018-Jul-15 19:43N 40°42' W 074°00'416.7
2018-Jul-15 19:29N 40°38' W 074°02'2 1.7
2018-Jul-15 18:06N 40°36' W 074°02'223.5
2018-Jul-15 18:00N 40°38' W 074°03'4 5.3
2018-Jul-15 17:15N 40°42' W 074°01'417.3
2018-Jul-15 17:00N 40°38' W 074°03'1 0.8
2018-Jul-15 15:36N 40°37' W 074°03'221.1
2018-Jul-15 15:30N 40°39' W 074°02'5 0.1
2018-Jul-14 02:12N 40°42' W 073°58'316.4
2018-Jul-14 02:01N 40°40' W 074°01'815.4
2018-Jul-14 01:30N 40°34' W 073°54'2 4.2
2018-Jul-14 00:57N 40°34' W 073°57'613.4
2018-Jul-14 00:30N 40°39' W 074°02'4 7.1
2018-Jul-14 00:00N 40°42' W 074°00'0 0.8
2018-Jul-13 23:31N 40°42' W 073°60'4 7.3
2018-Jul-13 23:01N 40°39' W 074°02'3 5.3
2018-Jul-13 22:31N 40°41' W 074°00'1 2.1
2018-Jul-13 22:01N 40°42' W 073°60'4 8.5
2018-Jul-13 21:30N 40°38' W 074°02'3 7.0
2018-Jul-13 21:01N 40°42' W 074°00'1 1.3
2018-Jul-13 20:31N 40°42' W 074°00'2 3.6
2018-Jul-13 20:01N 40°41' W 074°01'0 0.5
2018-Jul-13 19:31N 40°40' W 074°01'2 4.1
2018-Jul-13 19:01N 40°42' W 074°00'1 2.5
2018-Jul-13 18:31N 40°41' W 074°01'2 3.8
2018-Jul-13 18:01N 40°39' W 074°02'3 6.2
2018-Jul-13 17:30N 40°42' W 074°00'1 2.9
2018-Jul-13 17:01N 40°41' W 074°01'2 3.1
2018-Jul-13 16:31N 40°39' W 074°02'3 6.0
2018-Jul-13 16:00N 40°42' W 074°00'1 2.5
2018-Jul-13 15:31N 40°41' W 074°01'2 3.8
2018-Jul-13 15:01N 40°39' W 074°02'3 2.7
2018-Jul-13 14:01N 40°42' W 074°00'3 6.7
2018-Jul-13 13:31N 40°39' W 074°02'3 6.0
2018-Jul-13 13:00N 40°41' W 074°00'0 0.6
2018-Jul-13 12:31N 40°42' W 074°00'3 6.4
2018-Jul-13 12:00N 40°39' W 074°02'3 6.0
2018-Jul-13 11:30N 40°41' W 074°00'0 0.8
2018-Jul-13 11:01N 40°42' W 074°00'4 7.4
2018-Jul-13 10:31N 40°38' W 074°02'5 9.4
2018-Jul-13 10:00N 40°42' W 073°58'0 0.0
2018-Jul-13 03:21N 40°42' W 073°58'0 0.5
2018-Jul-13 03:00N 40°42' W 073°58'0 0.7
2018-Jul-13 02:31N 40°42' W 073°59'3 5.9
2018-Jul-13 02:00N 40°45' W 073°57'0 0.0
2018-Jul-13 01:30N 40°45' W 073°57'4 7.6
2018-Jul-13 01:00N 40°42' W 074°00'4 7.7
2018-Jul-13 00:30N 40°45' W 073°57'0 0.2
2018-Jul-13 00:00N 40°45' W 073°57'4 8.1
2018-Jul-12 23:30N 40°42' W 074°00'3 5.7
2018-Jul-12 23:00N 40°45' W 073°58'2 4.1
2018-Jul-12 22:26N 40°46' W 073°56'3 7.1
2018-Jul-12 22:01N 40°44' W 073°58'1 2.1
2018-Jul-12 21:30N 40°45' W 073°58'2 3.5
2018-Jul-12 20:55N 40°46' W 073°56'3 7.3
2018-Jul-12 20:31N 40°43' W 073°58'1 2.4
2018-Jul-12 20:00N 40°45' W 073°58'1 2.3
2018-Jul-12 19:23N 40°46' W 073°57'3 6.8
2018-Jul-12 19:00N 40°43' W 073°58'1 2.7
2018-Jul-12 18:28N 40°45' W 073°58'2 4.9
2018-Jul-12 18:00N 40°46' W 073°56'4 7.3
2018-Jul-12 17:30N 40°43' W 073°58'2 3.1
2018-Jul-12 16:59N 40°45' W 073°58'2 4.8
2018-Jul-12 16:30N 40°46' W 073°56'3 6.6
2018-Jul-12 16:00N 40°43' W 073°58'1 2.3
2018-Jul-12 15:27N 40°45' W 073°58'2 4.7
2018-Jul-12 14:58N 40°46' W 073°56'4 8.3
2018-Jul-12 14:30N 40°43' W 073°58'0 0.7
2018-Jul-12 14:00N 40°43' W 073°58'3 6.8
2018-Jul-12 13:30N 40°46' W 073°56'2 5.1
2018-Jul-12 13:00N 40°44' W 073°58'1 1.2
2018-Jul-12 12:30N 40°44' W 073°58'3 4.6
2018-Jul-12 11:53N 40°46' W 073°56'2 6.0
2018-Jul-12 11:30N 40°45' W 073°58'3 0.3
2018-Jul-12 03:24N 40°42' W 073°58'0 0.4
2018-Jul-12 03:00N 40°42' W 073°58'1 1.2
2018-Jul-12 02:31N 40°43' W 073°58'  
Track history (hours):
 
Tides and Currents Weather Stations Pressure Air Temp Water Temp Dewpoint Dewpoint Depression Visibility Wind Speed Wind Dir Waves Ship Positions

H208

Owner: HNY Ferry Fleet LLC, New York, NY. More information available from US FCC via Universal Licensing System and Coast Guard Vessel Documentation Center.

Last reported at 2018-Jul-22 02:25 UTC. Time now 2018-Jul-22 02:56 UTC.
Position N 40°42' W 073°58'.

Length 26 m; draft 2 m.

Type: Passenger vessel. MMSI: 367797260.

Date/timePositionNaut miles runAvg speedWind from/ knotsBaromVisibWave heightAir tempDewpointWater temp
2018-Jul-22 02:25N 40°42' W 073°58'1 2.7
2018-Jul-22 02:01N 40°42' W 073°60'4 8.0
2018-Jul-22 01:30N 40°39' W 074°02'3 6.5
2018-Jul-22 01:01N 40°42' W 074°00'0 0.0
2018-Jul-22 00:31N 40°42' W 074°00'3 5.9
2018-Jul-22 00:00N 40°39' W 074°02'4 7.1
2018-Jul-21 23:30N 40°42' W 074°00'0 0.1
2018-Jul-21 23:01N 40°42' W 074°00'3 5.1
2018-Jul-21 22:31N 40°44' W 073°58'0 0.1
2018-Jul-21 22:00N 40°44' W 073°58'2 4.4
2018-Jul-21 21:30N 40°42' W 073°60'0 0.0
2018-Jul-21 21:00N 40°42' W 073°60'3 5.5
2018-Jul-21 20:31N 40°45' W 073°58'1 1.3
2018-Jul-21 20:00N 40°44' W 073°58'2 4.4
2018-Jul-21 19:30N 40°42' W 073°60'0 0.0
2018-Jul-21 19:01N 40°42' W 073°60'3 5.5
2018-Jul-21 18:30N 40°45' W 073°58'1 1.3
2018-Jul-21 18:00N 40°44' W 073°58'2 4.4
2018-Jul-21 17:31N 40°42' W 073°60'0 0.1
2018-Jul-21 17:00N 40°42' W 073°60'2 4.3
2018-Jul-21 16:30N 40°44' W 073°58'0 0.3
2018-Jul-21 16:01N 40°44' W 073°58'2 4.6
2018-Jul-21 15:30N 40°42' W 073°60'0 0.0
2018-Jul-21 15:00N 40°42' W 073°60'2 4.4
2018-Jul-21 14:30N 40°44' W 073°58'2 2.2
2018-Jul-21 13:30N 40°42' W 073°60'0 0.9
2018-Jul-21 13:00N 40°42' W 074°00'2 3.3
2018-Jul-21 12:31N 40°43' W 073°58'2 4.3
2018-Jul-21 12:00N 40°45' W 073°58'3 5.1
2018-Jul-21 11:30N 40°42' W 073°58'0 0.0
2018-Jul-21 02:45N 40°42' W 073°58'1 5.6
2018-Jul-21 02:30N 40°42' W 074°00'4 7.5
2018-Jul-21 02:00N 40°45' W 073°57'0 0.9
2018-Jul-21 01:30N 40°45' W 073°57'3 6.9
2018-Jul-21 01:00N 40°42' W 074°00'4 7.5
2018-Jul-21 00:30N 40°45' W 073°57'0 0.6
2018-Jul-21 00:00N 40°45' W 073°57'3 6.8
2018-Jul-20 23:30N 40°42' W 074°00'3 5.9
2018-Jul-20 23:00N 40°45' W 073°58'1 1.7
2018-Jul-20 22:21N 40°45' W 073°57'2 6.3
2018-Jul-20 22:00N 40°43' W 073°58'1 2.6
2018-Jul-20 21:30N 40°45' W 073°58'1 2.1
2018-Jul-20 20:53N 40°46' W 073°57'2 6.5
2018-Jul-20 20:31N 40°43' W 073°58'1 2.8
2018-Jul-20 20:00N 40°45' W 073°58'2 3.9
2018-Jul-20 19:30N 40°46' W 073°56'3 7.1
2018-Jul-20 19:01N 40°43' W 073°58'2 3.2
2018-Jul-20 18:28N 40°45' W 073°58'2 4.7
2018-Jul-20 18:00N 40°46' W 073°56'3 6.0
2018-Jul-20 17:31N 40°44' W 073°58'1 1.6
2018-Jul-20 16:58N 40°45' W 073°58'2 5.0
2018-Jul-20 16:30N 40°46' W 073°56'3 6.1
2018-Jul-20 16:00N 40°44' W 073°58'1 1.9
2018-Jul-20 15:28N 40°45' W 073°58'2 4.9
2018-Jul-20 15:00N 40°46' W 073°56'3 6.6
2018-Jul-20 14:30N 40°43' W 073°58'0 0.6
2018-Jul-20 14:01N 40°44' W 073°58'3 5.9
2018-Jul-20 13:29N 40°46' W 073°56'2 5.1
2018-Jul-20 13:00N 40°45' W 073°58'1 1.6
2018-Jul-20 12:31N 40°44' W 073°58'3 5.8
2018-Jul-20 12:00N 40°46' W 073°56'2 4.8
2018-Jul-20 11:31N 40°45' W 073°58'2 4.0
2018-Jul-20 11:01N 40°43' W 073°59'4 7.9
2018-Jul-20 10:29N 40°46' W 073°56'5 9.4
2018-Jul-20 10:00N 40°42' W 073°58'0 0.0
2018-Jul-20 09:30N 40°42' W 073°58'0 0.0
2018-Jul-20 02:56N 40°42' W 073°58'0 0.7
2018-Jul-20 02:31N 40°42' W 073°59'3 5.9
2018-Jul-20 02:00N 40°45' W 073°57'0 0.3
2018-Jul-20 01:30N 40°45' W 073°57'4 7.9
2018-Jul-20 01:01N 40°42' W 074°00'4 7.2
2018-Jul-20 00:30N 40°45' W 073°57'0 0.8
2018-Jul-20 00:00N 40°45' W 073°57'4 8.0
2018-Jul-19 23:31N 40°42' W 074°00'3 5.7
2018-Jul-19 23:00N 40°45' W 073°58'2 4.4
2018-Jul-19 22:29N 40°46' W 073°56'3 5.7
2018-Jul-19 22:00N 40°44' W 073°58'1 1.3
2018-Jul-19 21:30N 40°45' W 073°58'2 4.4
2018-Jul-19 21:00N 40°46' W 073°56'3 6.8
2018-Jul-19 20:31N 40°43' W 073°58'1 2.7
2018-Jul-19 20:00N 40°45' W 073°58'2 3.9
2018-Jul-19 19:28N 40°46' W 073°56'3 7.5
2018-Jul-19 19:00N 40°43' W 073°58'2 3.3
2018-Jul-19 18:30N 40°45' W 073°58'2 4.3
2018-Jul-19 17:58N 40°46' W 073°56'3 6.2
2018-Jul-19 17:30N 40°44' W 073°58'1 1.5
2018-Jul-19 16:58N 40°45' W 073°58'2 4.9
2018-Jul-19 16:30N 40°46' W 073°56'3 6.3
2018-Jul-19 16:01N 40°44' W 073°58'1 2.0
2018-Jul-19 15:28N 40°45' W 073°58'2 5.0
2018-Jul-19 15:00N 40°46' W 073°56'3 6.4
2018-Jul-19 14:30N 40°44' W 073°58'3 3.0
2018-Jul-19 13:28N 40°46' W 073°56'2 5.2
2018-Jul-19 13:01N 40°45' W 073°58'1 1.5
2018-Jul-19 12:30N 40°44' W 073°58'3 5.7
2018-Jul-19 12:00N 40°46' W 073°56'3 5.6
2018-Jul-19 11:30N 40°44' W 073°58'1 2.8
2018-Jul-19 11:01N 40°43' W 073°59'4 8.1
2018-Jul-19 10:30N 40°46' W 073°56'4 9.1
2018-Jul-19 10:01N 40°42' W 073°58'0 0.1
2018-Jul-19 09:30N 40°42' W 073°58'0 0.0
2018-Jul-19 09:00N 40°42' W 073°58'0 0.0
2018-Jul-19 03:09N 40°42' W 073°58'0 0.1
2018-Jul-19 02:59N 40°42' W 073°58'2 3.2
2018-Jul-19 02:31N 40°42' W 074°00'3 6.0
2018-Jul-19 02:00N 40°39' W 074°02'3 6.1
2018-Jul-19 01:31N 40°42' W 074°00'0 0.0
2018-Jul-19 01:00N 40°42' W 074°00'3 5.4
2018-Jul-19 00:30N 40°39' W 074°02'2 3.7
2018-Jul-19 00:00N 40°41' W 074°01'1 2.8
2018-Jul-18 23:31N 40°42' W 074°00'1 1.7
2018-Jul-18 23:01N 40°41' W 074°00'3 6.4
2018-Jul-18 22:31N 40°38' W 074°02'4 7.1
2018-Jul-18 22:01N 40°42' W 074°00'0 0.4
2018-Jul-18 21:30N 40°42' W 074°00'4 7.1
2018-Jul-18 21:00N 40°38' W 074°02'3 6.6
2018-Jul-18 20:31N 40°41' W 074°00'2 3.4
2018-Jul-18 20:00N 40°42' W 073°58'0 0.3
2018-Jul-18 19:30N 40°42' W 073°58'0 0.1
2018-Jul-18 19:00N 40°42' W 073°58'0 0.1
2018-Jul-18 18:31N 40°42' W 073°58'0 0.0
2018-Jul-18 18:00N 40°42' W 073°58'1 2.9
2018-Jul-18 17:31N 40°42' W 074°00'4 7.1
2018-Jul-18 17:00N 40°38' W 074°02'4 7.1
2018-Jul-18 16:31N 40°42' W 074°00'1 1.4
2018-Jul-18 16:01N 40°42' W 073°60'4 7.3
2018-Jul-18 15:30N 40°39' W 074°02'4 8.1
2018-Jul-18 15:00N 40°42' W 073°58'0 0.0
2018-Jul-18 14:30N 40°42' W 073°58'1 0.7
2018-Jul-18 13:31N 40°42' W 073°59'1 2.4
2018-Jul-18 13:00N 40°43' W 073°58'1 2.5
2018-Jul-18 12:30N 40°45' W 073°58'3 5.1
2018-Jul-18 12:01N 40°42' W 073°59'1 1.0
2018-Jul-18 11:30N 40°42' W 073°59'1 0.6
2018-Jul-18 10:30N 40°42' W 073°58'0 0.0
2018-Jul-18 10:00N 40°42' W 073°58'0 0.0
2018-Jul-18 02:39N 40°42' W 073°58'0 1.0
2018-Jul-18 02:30N 40°42' W 073°58'1 2.6
2018-Jul-18 02:00N 40°43' W 073°58'2 4.4
2018-Jul-18 01:30N 40°42' W 074°00'0 0.2
2018-Jul-18 01:01N 40°42' W 074°00'2 5.0
2018-Jul-18 00:31N 40°44' W 073°58'1 1.0
2018-Jul-18 00:00N 40°43' W 073°58'2 4.3
2018-Jul-17 23:30N 40°42' W 074°00'2 4.4
2018-Jul-17 23:00N 40°43' W 073°58'1 2.4
2018-Jul-17 22:30N 40°44' W 073°58'3 5.3
2018-Jul-17 22:00N 40°42' W 073°60'1 1.1
2018-Jul-17 21:30N 40°42' W 073°59'2 4.7
2018-Jul-17 21:01N 40°45' W 073°58'2 4.2
2018-Jul-17 20:30N 40°43' W 073°58'1 2.9
2018-Jul-17 20:00N 40°42' W 074°00'2 4.4
2018-Jul-17 19:31N 40°43' W 073°58'1 2.5
2018-Jul-17 19:01N 40°45' W 073°58'3 5.6
2018-Jul-17 18:30N 40°42' W 073°60'1 1.4
2018-Jul-17 18:01N 40°42' W 073°59'1 2.2
2018-Jul-17 17:30N 40°43' W 073°58'1 2.5
2018-Jul-17 17:01N 40°45' W 073°58'3 5.2
2018-Jul-17 16:30N 40°42' W 073°60'1 1.2
2018-Jul-17 16:00N 40°42' W 074°00'2 4.2
2018-Jul-17 15:30N 40°43' W 073°58'1 2.1
2018-Jul-17 14:57N 40°44' W 073°58'3 5.7
2018-Jul-17 14:30N 40°42' W 073°60'0 0.2
2018-Jul-17 14:01N 40°42' W 073°60'2 4.4
2018-Jul-17 13:30N 40°44' W 073°58'1 1.3
2018-Jul-17 13:00N 40°43' W 073°58'2 4.2
2018-Jul-17 12:30N 40°42' W 074°00'2 4.3
2018-Jul-17 12:00N 40°43' W 073°58'1 2.5
2018-Jul-17 11:31N 40°45' W 073°58'3 5.3
2018-Jul-17 11:01N 40°42' W 073°60'1 2.1
2018-Jul-17 10:31N 40°42' W 073°58'0 0.0
2018-Jul-17 10:00N 40°42' W 073°58'0 0.0
2018-Jul-17 02:17N 40°42' W 073°58'0 0.3
2018-Jul-17 02:01N 40°42' W 073°58'5 9.2
2018-Jul-17 01:30N 40°39' W 074°02'816.5
2018-Jul-17 01:00N 40°35' W 073°53'4 7.1
2018-Jul-17 00:30N 40°34' W 073°57'6 6.1
2018-Jul-16 23:30N 40°39' W 074°02'713.1
2018-Jul-16 22:59N 40°34' W 073°56'4 7.4
2018-Jul-16 22:30N 40°35' W 073°51'917.8
2018-Jul-16 22:00N 40°37' W 074°03'611.2
2018-Jul-16 21:31N 40°42' W 074°00'612.6
2018-Jul-16 21:00N 40°36' W 074°02'914.9
2018-Jul-16 20:23N 40°35' W 073°50'718.8
2018-Jul-16 20:00N 40°34' W 073°59'815.6
2018-Jul-16 19:30N 40°42' W 074°01'510.0
2018-Jul-16 19:00N 40°37' W 074°02'810.4
2018-Jul-16 18:16N 40°34' W 073°53'718.6
2018-Jul-16 17:55N 40°35' W 074°01'615.9
2018-Jul-16 17:30N 40°41' W 074°01'5 9.4
2018-Jul-16 17:00N 40°37' W 074°03'8 9.9
2018-Jul-16 16:14N 40°34' W 073°53'520.6
2018-Jul-16 16:00N 40°34' W 073°59'714.3
2018-Jul-16 15:31N 40°41' W 074°01'2 4.2
2018-Jul-16 15:01N 40°39' W 074°02'816.0
2018-Jul-16 14:29N 40°35' W 073°52'4 8.8
2018-Jul-16 13:59N 40°34' W 073°58'613.7
2018-Jul-16 13:31N 40°40' W 074°01'1 2.2
2018-Jul-16 13:00N 40°39' W 074°02'713.7
2018-Jul-16 12:30N 40°34' W 073°54'1 1.6
2018-Jul-16 12:00N 40°34' W 073°55'714.4
2018-Jul-16 11:30N 40°39' W 074°02'0 0.6
2018-Jul-16 11:00N 40°39' W 074°02'713.7
2018-Jul-16 10:30N 40°34' W 073°55'1 1.4
2018-Jul-16 10:00N 40°34' W 073°54'815.2
2018-Jul-16 09:30N 40°39' W 074°02'5 9.2
2018-Jul-16 09:00N 40°42' W 073°58'0 0.0
2018-Jul-16 01:25N 40°42' W 073°58'0 0.4
2018-Jul-16 01:00N 40°42' W 073°58'5 9.6
2018-Jul-16 00:31N 40°39' W 074°03'9 8.9
2018-Jul-15 23:29N 40°34' W 073°53'817.9
2018-Jul-15 23:01N 40°38' W 074°03'4 8.4
2018-Jul-15 22:30N 40°42' W 074°00'4 8.9
2018-Jul-15 22:01N 40°38' W 074°03'1 0.9
2018-Jul-15 20:34N 40°37' W 074°03'121.9
2018-Jul-15 20:30N 40°38' W 074°03'4 5.4
2018-Jul-15 19:43N 40°42' W 074°00'416.7
2018-Jul-15 19:29N 40°38' W 074°02'2 1.7
2018-Jul-15 18:06N 40°36' W 074°02'223.5
2018-Jul-15 18:00N 40°38' W 074°03'4 5.3
2018-Jul-15 17:15N 40°42' W 074°01'417.3
2018-Jul-15 17:00N 40°38' W 074°03'1 0.8
2018-Jul-15 15:36N 40°37' W 074°03'221.1
2018-Jul-15 15:30N 40°39' W 074°02'5 0.1
2018-Jul-14 02:12N 40°42' W 073°58'316.4
2018-Jul-14 02:01N 40°40' W 074°01'815.4
2018-Jul-14 01:30N 40°34' W 073°54'2 4.2
2018-Jul-14 00:57N 40°34' W 073°57'613.4
2018-Jul-14 00:30N 40°39' W 074°02'4 7.1
2018-Jul-14 00:00N 40°42' W 074°00'0 0.8
2018-Jul-13 23:31N 40°42' W 073°60'4 7.3
2018-Jul-13 23:01N 40°39' W 074°02'3 5.3
2018-Jul-13 22:31N 40°41' W 074°00'1 2.1
2018-Jul-13 22:01N 40°42' W 073°60'4 8.5
2018-Jul-13 21:30N 40°38' W 074°02'3 7.0
2018-Jul-13 21:01N 40°42' W 074°00'1 1.3
2018-Jul-13 20:31N 40°42' W 074°00'2 3.6
2018-Jul-13 20:01N 40°41' W 074°01'0 0.5
2018-Jul-13 19:31N 40°40' W 074°01'2 4.1
2018-Jul-13 19:01N 40°42' W 074°00'1 2.5
2018-Jul-13 18:31N 40°41' W 074°01'2 3.8
2018-Jul-13 18:01N 40°39' W 074°02'3 6.2
2018-Jul-13 17:30N 40°42' W 074°00'1 2.9
2018-Jul-13 17:01N 40°41' W 074°01'2 3.1
2018-Jul-13 16:31N 40°39' W 074°02'3 6.0
2018-Jul-13 16:00N 40°42' W 074°00'1 2.5
2018-Jul-13 15:31N 40°41' W 074°01'2 3.8
2018-Jul-13 15:01N 40°39' W 074°02'3 2.7
2018-Jul-13 14:01N 40°42' W 074°00'3 6.7
2018-Jul-13 13:31N 40°39' W 074°02'3 6.0
2018-Jul-13 13:00N 40°41' W 074°00'0 0.6
2018-Jul-13 12:31N 40°42' W 074°00'3 6.4
2018-Jul-13 12:00N 40°39' W 074°02'3 6.0
2018-Jul-13 11:30N 40°41' W 074°00'0 0.8
2018-Jul-13 11:01N 40°42' W 074°00'4 7.4
2018-Jul-13 10:31N 40°38' W 074°02'5 9.4
2018-Jul-13 10:00N 40°42' W 073°58'0 0.0
2018-Jul-13 03:21N 40°42' W 073°58'0 0.5
2018-Jul-13 03:00N 40°42' W 073°58'0 0.7
2018-Jul-13 02:31N 40°42' W 073°59'3 5.9
2018-Jul-13 02:00N 40°45' W 073°57'0 0.0
2018-Jul-13 01:30N 40°45' W 073°57'4 7.6
2018-Jul-13 01:00N 40°42' W 074°00'4 7.7
2018-Jul-13 00:30N 40°45' W 073°57'0 0.2
2018-Jul-13 00:00N 40°45' W 073°57'4 8.1
2018-Jul-12 23:30N 40°42' W 074°00'3 5.7
2018-Jul-12 23:00N 40°45' W 073°58'2 4.1
2018-Jul-12 22:26N 40°46' W 073°56'3 7.1
2018-Jul-12 22:01N 40°44' W 073°58'1 2.1
2018-Jul-12 21:30N 40°45' W 073°58'2 3.5
2018-Jul-12 20:55N 40°46' W 073°56'3 7.3
2018-Jul-12 20:31N 40°43' W 073°58'1 2.4
2018-Jul-12 20:00N 40°45' W 073°58'1 2.3
2018-Jul-12 19:23N 40°46' W 073°57'3 6.8
2018-Jul-12 19:00N 40°43' W 073°58'1 2.7
2018-Jul-12 18:28N 40°45' W 073°58'2 4.9
2018-Jul-12 18:00N 40°46' W 073°56'4 7.3
2018-Jul-12 17:30N 40°43' W 073°58'2 3.1
2018-Jul-12 16:59N 40°45' W 073°58'2 4.8
2018-Jul-12 16:30N 40°46' W 073°56'3 6.6
2018-Jul-12 16:00N 40°43' W 073°58'1 2.3
2018-Jul-12 15:27N 40°45' W 073°58'2 4.7
2018-Jul-12 14:58N 40°46' W 073°56'4 8.3
2018-Jul-12 14:30N 40°43' W 073°58'0 0.7
2018-Jul-12 14:00N 40°43' W 073°58'3 6.8
2018-Jul-12 13:30N 40°46' W 073°56'2 5.1
2018-Jul-12 13:00N 40°44' W 073°58'1 1.2
2018-Jul-12 12:30N 40°44' W 073°58'3 4.6
2018-Jul-12 11:53N 40°46' W 073°56'2 6.0
2018-Jul-12 11:30N 40°45' W 073°58'3 0.3
2018-Jul-12 03:24N 40°42' W 073°58'0 0.4
2018-Jul-12 03:00N 40°42' W 073°58'1 1.2
2018-Jul-12 02:31N 40°43' W 073°58'  

Dump ship's entire track history